sensor_id;sensor_type;location;lat;lon;timestamp;P1;durP1;ratioP1;P2;durP2;ratioP2
5569;SDS011;2808;51.240;6.794;2023-06-26T00:01:34;13.03;;;6.53;;
5569;SDS011;2808;51.240;6.794;2023-06-26T00:04:03;11.53;;;7.10;;
5569;SDS011;2808;51.240;6.794;2023-06-26T00:06:31;13.33;;;7.30;;
5569;SDS011;2808;51.240;6.794;2023-06-26T00:08:59;12.70;;;7.30;;
5569;SDS011;2808;51.240;6.794;2023-06-26T00:11:27;13.33;;;6.70;;
5569;SDS011;2808;51.240;6.794;2023-06-26T00:13:58;10.40;;;6.50;;
5569;SDS011;2808;51.240;6.794;2023-06-26T00:16:27;10.53;;;6.50;;
5569;SDS011;2808;51.240;6.794;2023-06-26T00:18:56;12.27;;;6.53;;
5569;SDS011;2808;51.240;6.794;2023-06-26T00:21:24;11.23;;;6.63;;
5569;SDS011;2808;51.240;6.794;2023-06-26T00:23:52;12.13;;;7.00;;
5569;SDS011;2808;51.240;6.794;2023-06-26T00:26:19;12.53;;;7.50;;
5569;SDS011;2808;51.240;6.794;2023-06-26T00:28:47;10.20;;;6.97;;
5569;SDS011;2808;51.240;6.794;2023-06-26T00:31:14;10.87;;;6.87;;
5569;SDS011;2808;51.240;6.794;2023-06-26T00:33:43;11.10;;;7.13;;
5569;SDS011;2808;51.240;6.794;2023-06-26T00:36:10;11.20;;;7.20;;
5569;SDS011;2808;51.240;6.794;2023-06-26T00:38:38;10.13;;;6.70;;
5569;SDS011;2808;51.240;6.794;2023-06-26T00:41:06;10.53;;;6.70;;
5569;SDS011;2808;51.240;6.794;2023-06-26T00:43:37;10.93;;;6.87;;
5569;SDS011;2808;51.240;6.794;2023-06-26T00:46:05;11.20;;;6.40;;
5569;SDS011;2808;51.240;6.794;2023-06-26T00:48:36;10.80;;;7.10;;
5569;SDS011;2808;51.240;6.794;2023-06-26T00:51:05;11.73;;;7.30;;
5569;SDS011;2808;51.240;6.794;2023-06-26T00:53:33;11.00;;;6.67;;
5569;SDS011;2808;51.240;6.794;2023-06-26T00:56:02;14.53;;;6.90;;
5569;SDS011;2808;51.240;6.794;2023-06-26T00:58:29;15.60;;;8.10;;
5569;SDS011;2808;51.240;6.794;2023-06-26T01:00:57;13.13;;;7.30;;
5569;SDS011;2808;51.240;6.794;2023-06-26T01:03:25;11.87;;;6.90;;
5569;SDS011;2808;51.240;6.794;2023-06-26T01:05:53;12.23;;;7.10;;
5569;SDS011;2808;51.240;6.794;2023-06-26T01:08:24;13.13;;;7.07;;
5569;SDS011;2808;51.240;6.794;2023-06-26T01:10:51;10.30;;;6.73;;
5569;SDS011;2808;51.240;6.794;2023-06-26T01:13:19;10.77;;;7.03;;
5569;SDS011;2808;51.240;6.794;2023-06-26T01:15:50;11.03;;;6.90;;
5569;SDS011;2808;51.240;6.794;2023-06-26T01:18:18;10.57;;;7.10;;
5569;SDS011;2808;51.240;6.794;2023-06-26T01:20:46;12.63;;;7.67;;
5569;SDS011;2808;51.240;6.794;2023-06-26T01:23:14;12.17;;;7.17;;
5569;SDS011;2808;51.240;6.794;2023-06-26T01:25:51;13.93;;;6.80;;
5569;SDS011;2808;51.240;6.794;2023-06-26T01:28:33;9.87;;;6.47;;
5569;SDS011;2808;51.240;6.794;2023-06-26T01:31:04;10.33;;;6.90;;
5569;SDS011;2808;51.240;6.794;2023-06-26T01:33:33;11.90;;;7.20;;
5569;SDS011;2808;51.240;6.794;2023-06-26T01:36:01;11.17;;;6.67;;
5569;SDS011;2808;51.240;6.794;2023-06-26T01:38:29;11.07;;;7.40;;
5569;SDS011;2808;51.240;6.794;2023-06-26T01:40:56;12.60;;;7.17;;
5569;SDS011;2808;51.240;6.794;2023-06-26T01:43:27;12.67;;;6.73;;
5569;SDS011;2808;51.240;6.794;2023-06-26T01:46:01;10.17;;;6.70;;
5569;SDS011;2808;51.240;6.794;2023-06-26T01:48:32;11.37;;;6.93;;
5569;SDS011;2808;51.240;6.794;2023-06-26T01:51:04;10.90;;;6.93;;
5569;SDS011;2808;51.240;6.794;2023-06-26T01:53:35;10.53;;;6.87;;
5569;SDS011;2808;51.240;6.794;2023-06-26T01:56:06;11.73;;;7.40;;
5569;SDS011;2808;51.240;6.794;2023-06-26T01:58:38;10.47;;;7.20;;
5569;SDS011;2808;51.240;6.794;2023-06-26T02:01:09;10.43;;;7.23;;
5569;SDS011;2808;51.240;6.794;2023-06-26T02:03:37;11.10;;;6.90;;
5569;SDS011;2808;51.240;6.794;2023-06-26T02:06:05;12.60;;;7.20;;
5569;SDS011;2808;51.240;6.794;2023-06-26T02:08:32;14.50;;;7.20;;
5569;SDS011;2808;51.240;6.794;2023-06-26T02:10:59;11.53;;;7.50;;
5569;SDS011;2808;51.240;6.794;2023-06-26T02:13:27;10.17;;;6.93;;
5569;SDS011;2808;51.240;6.794;2023-06-26T02:15:55;10.90;;;7.40;;
5569;SDS011;2808;51.240;6.794;2023-06-26T02:18:23;17.30;;;9.73;;
5569;SDS011;2808;51.240;6.794;2023-06-26T02:20:50;16.50;;;9.77;;
5569;SDS011;2808;51.240;6.794;2023-06-26T02:23:18;12.23;;;8.00;;
5569;SDS011;2808;51.240;6.794;2023-06-26T02:25:45;20.60;;;13.47;;
5569;SDS011;2808;51.240;6.794;2023-06-26T02:28:12;13.53;;;8.63;;
5569;SDS011;2808;51.240;6.794;2023-06-26T02:30:40;10.93;;;7.63;;
5569;SDS011;2808;51.240;6.794;2023-06-26T02:33:09;11.37;;;7.20;;
5569;SDS011;2808;51.240;6.794;2023-06-26T02:35:36;16.53;;;10.30;;
5569;SDS011;2808;51.240;6.794;2023-06-26T02:38:03;14.00;;;8.70;;
5569;SDS011;2808;51.240;6.794;2023-06-26T02:40:31;12.97;;;8.13;;
5569;SDS011;2808;51.240;6.794;2023-06-26T02:42:58;13.40;;;7.77;;
5569;SDS011;2808;51.240;6.794;2023-06-26T02:45:26;13.30;;;7.10;;
5569;SDS011;2808;51.240;6.794;2023-06-26T02:47:53;12.33;;;7.30;;
5569;SDS011;2808;51.240;6.794;2023-06-26T02:50:25;10.67;;;6.87;;
5569;SDS011;2808;51.240;6.794;2023-06-26T02:52:52;10.70;;;6.80;;
5569;SDS011;2808;51.240;6.794;2023-06-26T02:55:20;13.17;;;9.00;;
5569;SDS011;2808;51.240;6.794;2023-06-26T02:57:47;13.53;;;8.57;;
5569;SDS011;2808;51.240;6.794;2023-06-26T03:00:15;11.10;;;7.13;;
5569;SDS011;2808;51.240;6.794;2023-06-26T03:02:42;16.50;;;6.53;;
5569;SDS011;2808;51.240;6.794;2023-06-26T03:05:10;17.67;;;6.87;;
5569;SDS011;2808;51.240;6.794;2023-06-26T03:07:39;10.83;;;6.80;;
5569;SDS011;2808;51.240;6.794;2023-06-26T03:10:07;10.90;;;6.97;;
5569;SDS011;2808;51.240;6.794;2023-06-26T03:12:34;11.23;;;6.80;;
5569;SDS011;2808;51.240;6.794;2023-06-26T03:15:02;11.87;;;6.10;;
5569;SDS011;2808;51.240;6.794;2023-06-26T03:17:29;19.57;;;6.10;;
5569;SDS011;2808;51.240;6.794;2023-06-26T03:19:57;17.00;;;7.50;;
5569;SDS011;2808;51.240;6.794;2023-06-26T03:22:24;11.10;;;6.70;;
5569;SDS011;2808;51.240;6.794;2023-06-26T03:24:53;11.87;;;6.63;;
5569;SDS011;2808;51.240;6.794;2023-06-26T03:27:20;13.37;;;7.27;;
5569;SDS011;2808;51.240;6.794;2023-06-26T03:29:48;17.00;;;7.13;;
5569;SDS011;2808;51.240;6.794;2023-06-26T03:32:15;10.70;;;6.90;;
5569;SDS011;2808;51.240;6.794;2023-06-26T03:34:42;10.87;;;6.93;;
5569;SDS011;2808;51.240;6.794;2023-06-26T03:37:10;11.47;;;6.97;;
5569;SDS011;2808;51.240;6.794;2023-06-26T03:39:37;17.97;;;11.10;;
5569;SDS011;2808;51.240;6.794;2023-06-26T03:42:06;40.60;;;25.23;;
5569;SDS011;2808;51.240;6.794;2023-06-26T03:44:34;14.67;;;7.97;;
5569;SDS011;2808;51.240;6.794;2023-06-26T03:47:01;11.90;;;6.80;;
5569;SDS011;2808;51.240;6.794;2023-06-26T03:49:29;11.63;;;6.37;;
5569;SDS011;2808;51.240;6.794;2023-06-26T03:51:56;11.00;;;6.70;;
5569;SDS011;2808;51.240;6.794;2023-06-26T03:54:23;14.53;;;6.23;;
5569;SDS011;2808;51.240;6.794;2023-06-26T03:56:51;11.70;;;6.67;;
5569;SDS011;2808;51.240;6.794;2023-06-26T03:59:19;10.20;;;6.40;;
5569;SDS011;2808;51.240;6.794;2023-06-26T04:01:47;17.63;;;7.13;;
5569;SDS011;2808;51.240;6.794;2023-06-26T04:04:18;12.17;;;6.80;;
5569;SDS011;2808;51.240;6.794;2023-06-26T04:06:45;22.60;;;9.63;;
5569;SDS011;2808;51.240;6.794;2023-06-26T04:09:12;16.90;;;7.27;;
5569;SDS011;2808;51.240;6.794;2023-06-26T04:11:40;9.73;;;5.57;;
5569;SDS011;2808;51.240;6.794;2023-06-26T04:14:10;10.30;;;6.10;;
5569;SDS011;2808;51.240;6.794;2023-06-26T04:16:41;10.10;;;6.20;;
5569;SDS011;2808;51.240;6.794;2023-06-26T04:19:08;13.90;;;6.30;;
5569;SDS011;2808;51.240;6.794;2023-06-26T04:21:36;13.33;;;7.97;;
5569;SDS011;2808;51.240;6.794;2023-06-26T04:24:03;9.93;;;5.43;;
5569;SDS011;2808;51.240;6.794;2023-06-26T04:26:31;12.80;;;6.37;;
5569;SDS011;2808;51.240;6.794;2023-06-26T04:28:59;12.00;;;6.10;;
5569;SDS011;2808;51.240;6.794;2023-06-26T04:31:27;8.70;;;5.53;;
5569;SDS011;2808;51.240;6.794;2023-06-26T04:33:55;9.23;;;5.77;;
5569;SDS011;2808;51.240;6.794;2023-06-26T04:36:24;10.77;;;5.73;;
5569;SDS011;2808;51.240;6.794;2023-06-26T04:38:53;9.80;;;5.30;;
5569;SDS011;2808;51.240;6.794;2023-06-26T04:41:20;9.80;;;5.83;;
5569;SDS011;2808;51.240;6.794;2023-06-26T04:43:48;9.50;;;5.83;;
5569;SDS011;2808;51.240;6.794;2023-06-26T04:46:15;8.53;;;5.67;;
5569;SDS011;2808;51.240;6.794;2023-06-26T04:48:43;11.17;;;5.53;;
5569;SDS011;2808;51.240;6.794;2023-06-26T04:51:12;13.03;;;6.00;;
5569;SDS011;2808;51.240;6.794;2023-06-26T04:53:39;10.13;;;6.30;;
5569;SDS011;2808;51.240;6.794;2023-06-26T04:56:06;10.60;;;5.90;;
5569;SDS011;2808;51.240;6.794;2023-06-26T04:58:34;10.63;;;5.50;;
5569;SDS011;2808;51.240;6.794;2023-06-26T05:01:01;12.03;;;5.53;;
5569;SDS011;2808;51.240;6.794;2023-06-26T05:03:31;8.77;;;5.60;;
5569;SDS011;2808;51.240;6.794;2023-06-26T05:06:00;11.20;;;5.50;;
5569;SDS011;2808;51.240;6.794;2023-06-26T05:08:29;8.30;;;5.10;;
5569;SDS011;2808;51.240;6.794;2023-06-26T05:10:57;11.83;;;5.20;;
5569;SDS011;2808;51.240;6.794;2023-06-26T05:13:24;9.20;;;4.43;;
5569;SDS011;2808;51.240;6.794;2023-06-26T05:15:52;11.77;;;5.00;;
5569;SDS011;2808;51.240;6.794;2023-06-26T05:18:19;7.40;;;4.83;;
5569;SDS011;2808;51.240;6.794;2023-06-26T05:20:47;10.13;;;4.67;;
5569;SDS011;2808;51.240;6.794;2023-06-26T05:23:15;8.27;;;5.33;;
5569;SDS011;2808;51.240;6.794;2023-06-26T05:25:44;11.70;;;5.40;;
5569;SDS011;2808;51.240;6.794;2023-06-26T05:28:12;9.40;;;4.97;;
5569;SDS011;2808;51.240;6.794;2023-06-26T05:30:40;13.17;;;5.20;;
5569;SDS011;2808;51.240;6.794;2023-06-26T05:33:08;15.33;;;4.87;;
5569;SDS011;2808;51.240;6.794;2023-06-26T05:35:38;13.93;;;5.47;;
5569;SDS011;2808;51.240;6.794;2023-06-26T05:38:07;10.60;;;4.97;;
5569;SDS011;2808;51.240;6.794;2023-06-26T05:40:35;8.70;;;4.97;;
5569;SDS011;2808;51.240;6.794;2023-06-26T05:43:06;9.60;;;4.40;;
5569;SDS011;2808;51.240;6.794;2023-06-26T05:45:34;13.93;;;5.07;;
5569;SDS011;2808;51.240;6.794;2023-06-26T05:48:02;11.60;;;4.50;;
5569;SDS011;2808;51.240;6.794;2023-06-26T05:50:30;12.93;;;5.70;;
5569;SDS011;2808;51.240;6.794;2023-06-26T05:52:58;13.67;;;5.10;;
5569;SDS011;2808;51.240;6.794;2023-06-26T05:55:28;8.00;;;4.40;;
5569;SDS011;2808;51.240;6.794;2023-06-26T05:57:56;9.10;;;4.83;;
5569;SDS011;2808;51.240;6.794;2023-06-26T06:00:28;11.00;;;5.00;;
5569;SDS011;2808;51.240;6.794;2023-06-26T06:02:56;10.90;;;5.20;;
5569;SDS011;2808;51.240;6.794;2023-06-26T06:05:23;16.43;;;5.10;;
5569;SDS011;2808;51.240;6.794;2023-06-26T06:07:50;13.27;;;5.30;;
5569;SDS011;2808;51.240;6.794;2023-06-26T06:10:18;8.03;;;4.50;;
5569;SDS011;2808;51.240;6.794;2023-06-26T06:12:45;12.67;;;4.60;;
5569;SDS011;2808;51.240;6.794;2023-06-26T06:15:13;12.73;;;4.63;;
5569;SDS011;2808;51.240;6.794;2023-06-26T06:17:42;19.93;;;5.27;;
5569;SDS011;2808;51.240;6.794;2023-06-26T06:20:09;12.13;;;5.10;;
5569;SDS011;2808;51.240;6.794;2023-06-26T06:22:37;11.03;;;5.30;;
5569;SDS011;2808;51.240;6.794;2023-06-26T06:25:05;13.93;;;5.00;;
5569;SDS011;2808;51.240;6.794;2023-06-26T06:27:33;13.03;;;5.80;;
5569;SDS011;2808;51.240;6.794;2023-06-26T06:30:00;12.53;;;5.20;;
5569;SDS011;2808;51.240;6.794;2023-06-26T06:32:28;10.40;;;5.10;;
5569;SDS011;2808;51.240;6.794;2023-06-26T06:34:57;14.03;;;4.63;;
5569;SDS011;2808;51.240;6.794;2023-06-26T06:37:27;9.00;;;4.57;;
5569;SDS011;2808;51.240;6.794;2023-06-26T06:39:56;10.50;;;5.37;;
5569;SDS011;2808;51.240;6.794;2023-06-26T06:42:24;14.27;;;5.00;;
5569;SDS011;2808;51.240;6.794;2023-06-26T06:44:51;11.73;;;4.97;;
5569;SDS011;2808;51.240;6.794;2023-06-26T06:47:19;9.80;;;5.10;;
5569;SDS011;2808;51.240;6.794;2023-06-26T06:49:46;8.67;;;4.30;;
5569;SDS011;2808;51.240;6.794;2023-06-26T06:52:15;13.90;;;4.63;;
5569;SDS011;2808;51.240;6.794;2023-06-26T06:54:52;12.43;;;4.40;;
5569;SDS011;2808;51.240;6.794;2023-06-26T06:57:20;12.83;;;5.10;;
5569;SDS011;2808;51.240;6.794;2023-06-26T06:59:47;9.90;;;4.50;;
5569;SDS011;2808;51.240;6.794;2023-06-26T07:02:15;11.30;;;4.40;;
5569;SDS011;2808;51.240;6.794;2023-06-26T07:04:43;11.83;;;5.03;;
5569;SDS011;2808;51.240;6.794;2023-06-26T07:07:11;13.13;;;4.50;;
5569;SDS011;2808;51.240;6.794;2023-06-26T07:09:41;14.03;;;4.97;;
5569;SDS011;2808;51.240;6.794;2023-06-26T07:12:08;12.87;;;4.33;;
5569;SDS011;2808;51.240;6.794;2023-06-26T07:14:36;15.23;;;4.40;;
5569;SDS011;2808;51.240;6.794;2023-06-26T07:17:03;11.70;;;4.27;;
5569;SDS011;2808;51.240;6.794;2023-06-26T07:19:30;9.73;;;4.17;;
5569;SDS011;2808;51.240;6.794;2023-06-26T07:21:58;19.97;;;5.20;;
5569;SDS011;2808;51.240;6.794;2023-06-26T07:24:25;13.10;;;4.27;;
5569;SDS011;2808;51.240;6.794;2023-06-26T07:26:54;12.80;;;4.20;;
5569;SDS011;2808;51.240;6.794;2023-06-26T07:29:21;11.77;;;4.50;;
5569;SDS011;2808;51.240;6.794;2023-06-26T07:31:49;15.43;;;5.37;;
5569;SDS011;2808;51.240;6.794;2023-06-26T07:34:16;11.60;;;4.80;;
5569;SDS011;2808;51.240;6.794;2023-06-26T07:36:43;15.40;;;4.37;;
5569;SDS011;2808;51.240;6.794;2023-06-26T07:39:11;15.90;;;4.90;;
5569;SDS011;2808;51.240;6.794;2023-06-26T07:41:38;12.87;;;4.80;;
5569;SDS011;2808;51.240;6.794;2023-06-26T07:44:07;14.33;;;5.23;;
5569;SDS011;2808;51.240;6.794;2023-06-26T07:46:34;11.70;;;4.70;;
5569;SDS011;2808;51.240;6.794;2023-06-26T07:49:02;14.27;;;5.50;;
5569;SDS011;2808;51.240;6.794;2023-06-26T07:51:29;10.67;;;4.17;;
5569;SDS011;2808;51.240;6.794;2023-06-26T07:53:59;16.63;;;5.30;;
5569;SDS011;2808;51.240;6.794;2023-06-26T07:56:26;9.73;;;4.50;;
5569;SDS011;2808;51.240;6.794;2023-06-26T07:58:53;10.13;;;4.33;;
5569;SDS011;2808;51.240;6.794;2023-06-26T08:01:23;14.13;;;5.00;;
5569;SDS011;2808;51.240;6.794;2023-06-26T08:03:51;15.83;;;5.37;;
5569;SDS011;2808;51.240;6.794;2023-06-26T08:06:19;15.73;;;5.03;;
5569;SDS011;2808;51.240;6.794;2023-06-26T08:08:47;12.07;;;4.93;;
5569;SDS011;2808;51.240;6.794;2023-06-26T08:11:14;12.97;;;5.07;;
5569;SDS011;2808;51.240;6.794;2023-06-26T08:13:42;13.17;;;5.40;;
5569;SDS011;2808;51.240;6.794;2023-06-26T08:16:09;13.10;;;4.40;;
5569;SDS011;2808;51.240;6.794;2023-06-26T08:18:38;11.53;;;4.93;;
5569;SDS011;2808;51.240;6.794;2023-06-26T08:21:05;16.03;;;5.07;;
5569;SDS011;2808;51.240;6.794;2023-06-26T08:23:34;13.00;;;5.50;;
5569;SDS011;2808;51.240;6.794;2023-06-26T08:26:02;16.37;;;5.57;;
5569;SDS011;2808;51.240;6.794;2023-06-26T08:28:29;17.47;;;5.30;;
5569;SDS011;2808;51.240;6.794;2023-06-26T08:30:56;17.20;;;5.47;;
5569;SDS011;2808;51.240;6.794;2023-06-26T08:33:24;14.10;;;5.23;;
5569;SDS011;2808;51.240;6.794;2023-06-26T08:35:53;14.13;;;6.07;;
5569;SDS011;2808;51.240;6.794;2023-06-26T08:38:20;15.40;;;5.33;;
5569;SDS011;2808;51.240;6.794;2023-06-26T08:40:48;13.57;;;5.00;;
5569;SDS011;2808;51.240;6.794;2023-06-26T08:43:16;13.33;;;5.73;;
5569;SDS011;2808;51.240;6.794;2023-06-26T08:45:44;16.73;;;4.80;;
5569;SDS011;2808;51.240;6.794;2023-06-26T08:48:13;15.53;;;5.13;;
5569;SDS011;2808;51.240;6.794;2023-06-26T08:50:41;11.67;;;4.30;;
5569;SDS011;2808;51.240;6.794;2023-06-26T08:53:13;11.60;;;4.40;;
5569;SDS011;2808;51.240;6.794;2023-06-26T08:55:45;12.67;;;4.33;;
5569;SDS011;2808;51.240;6.794;2023-06-26T08:58:15;13.67;;;4.43;;
5569;SDS011;2808;51.240;6.794;2023-06-26T09:00:42;11.10;;;4.13;;
5569;SDS011;2808;51.240;6.794;2023-06-26T09:03:10;10.90;;;3.93;;
5569;SDS011;2808;51.240;6.794;2023-06-26T09:05:39;13.70;;;4.03;;
5569;SDS011;2808;51.240;6.794;2023-06-26T09:08:06;14.10;;;4.30;;
5569;SDS011;2808;51.240;6.794;2023-06-26T09:10:36;14.40;;;3.97;;
5569;SDS011;2808;51.240;6.794;2023-06-26T09:13:03;21.03;;;5.00;;
5569;SDS011;2808;51.240;6.794;2023-06-26T09:15:36;14.40;;;4.43;;
5569;SDS011;2808;51.240;6.794;2023-06-26T09:18:05;13.53;;;3.40;;
5569;SDS011;2808;51.240;6.794;2023-06-26T09:20:33;12.20;;;4.10;;
5569;SDS011;2808;51.240;6.794;2023-06-26T09:23:00;14.67;;;3.70;;
5569;SDS011;2808;51.240;6.794;2023-06-26T09:25:28;12.23;;;4.50;;
5569;SDS011;2808;51.240;6.794;2023-06-26T09:27:57;12.10;;;3.40;;
5569;SDS011;2808;51.240;6.794;2023-06-26T09:30:25;11.23;;;3.77;;
5569;SDS011;2808;51.240;6.794;2023-06-26T09:32:52;10.90;;;3.50;;
5569;SDS011;2808;51.240;6.794;2023-06-26T09:35:20;11.87;;;3.70;;
5569;SDS011;2808;51.240;6.794;2023-06-26T09:37:47;12.50;;;4.00;;
5569;SDS011;2808;51.240;6.794;2023-06-26T09:40:15;13.93;;;5.00;;
5569;SDS011;2808;51.240;6.794;2023-06-26T09:42:43;12.30;;;3.83;;
5569;SDS011;2808;51.240;6.794;2023-06-26T09:45:18;12.30;;;3.10;;
5569;SDS011;2808;51.240;6.794;2023-06-26T09:47:46;13.20;;;3.70;;
5569;SDS011;2808;51.240;6.794;2023-06-26T09:50:21;8.30;;;3.40;;
5569;SDS011;2808;51.240;6.794;2023-06-26T09:52:50;13.30;;;3.57;;
5569;SDS011;2808;51.240;6.794;2023-06-26T09:55:18;9.73;;;3.03;;
5569;SDS011;2808;51.240;6.794;2023-06-26T09:57:47;8.60;;;3.60;;
5569;SDS011;2808;51.240;6.794;2023-06-26T10:00:16;9.77;;;3.20;;
5569;SDS011;2808;51.240;6.794;2023-06-26T10:02:48;11.43;;;3.57;;
5569;SDS011;2808;51.240;6.794;2023-06-26T10:05:16;7.83;;;3.13;;
5569;SDS011;2808;51.240;6.794;2023-06-26T10:07:43;18.73;;;4.23;;
5569;SDS011;2808;51.240;6.794;2023-06-26T10:10:11;9.50;;;3.50;;
5569;SDS011;2808;51.240;6.794;2023-06-26T10:12:39;9.37;;;3.10;;
5569;SDS011;2808;51.240;6.794;2023-06-26T10:15:09;8.50;;;3.43;;
5569;SDS011;2808;51.240;6.794;2023-06-26T10:17:42;9.80;;;3.60;;
5569;SDS011;2808;51.240;6.794;2023-06-26T10:20:12;11.80;;;3.37;;
5569;SDS011;2808;51.240;6.794;2023-06-26T10:22:43;9.80;;;3.07;;
5569;SDS011;2808;51.240;6.794;2023-06-26T10:25:12;12.53;;;3.23;;
5569;SDS011;2808;51.240;6.794;2023-06-26T10:27:45;7.20;;;3.00;;
5569;SDS011;2808;51.240;6.794;2023-06-26T10:30:18;8.10;;;3.33;;
5569;SDS011;2808;51.240;6.794;2023-06-26T10:32:51;9.10;;;2.97;;
5569;SDS011;2808;51.240;6.794;2023-06-26T10:35:20;10.20;;;2.90;;
5569;SDS011;2808;51.240;6.794;2023-06-26T10:37:48;7.70;;;2.73;;
5569;SDS011;2808;51.240;6.794;2023-06-26T10:40:21;8.53;;;3.10;;
5569;SDS011;2808;51.240;6.794;2023-06-26T10:42:51;8.30;;;3.00;;
5569;SDS011;2808;51.240;6.794;2023-06-26T10:45:32;11.80;;;3.00;;
5569;SDS011;2808;51.240;6.794;2023-06-26T10:48:03;7.57;;;2.60;;
5569;SDS011;2808;51.240;6.794;2023-06-26T10:50:31;6.33;;;2.50;;
5569;SDS011;2808;51.240;6.794;2023-06-26T10:53:15;9.10;;;2.90;;
5569;SDS011;2808;51.240;6.794;2023-06-26T10:56:00;8.63;;;2.60;;
5569;SDS011;2808;51.240;6.794;2023-06-26T10:58:30;6.40;;;2.73;;
5569;SDS011;2808;51.240;6.794;2023-06-26T11:01:20;8.10;;;2.60;;
5569;SDS011;2808;51.240;6.794;2023-06-26T11:04:01;6.30;;;2.43;;
5569;SDS011;2808;51.240;6.794;2023-06-26T11:06:32;8.10;;;2.40;;
5569;SDS011;2808;51.240;6.794;2023-06-26T11:09:11;11.17;;;2.67;;
5569;SDS011;2808;51.240;6.794;2023-06-26T11:11:56;7.40;;;2.90;;
5569;SDS011;2808;51.240;6.794;2023-06-26T11:14:35;6.63;;;2.10;;
5569;SDS011;2808;51.240;6.794;2023-06-26T11:17:03;7.17;;;2.33;;
5569;SDS011;2808;51.240;6.794;2023-06-26T11:19:32;10.37;;;2.33;;
5569;SDS011;2808;51.240;6.794;2023-06-26T11:22:01;7.60;;;2.70;;
5569;SDS011;2808;51.240;6.794;2023-06-26T11:24:30;9.47;;;2.80;;
5569;SDS011;2808;51.240;6.794;2023-06-26T11:27:02;5.83;;;2.73;;
5569;SDS011;2808;51.240;6.794;2023-06-26T11:29:31;5.83;;;2.37;;
5569;SDS011;2808;51.240;6.794;2023-06-26T11:32:00;6.07;;;2.20;;
5569;SDS011;2808;51.240;6.794;2023-06-26T11:34:31;8.03;;;2.83;;
5569;SDS011;2808;51.240;6.794;2023-06-26T11:37:02;7.90;;;2.27;;
5569;SDS011;2808;51.240;6.794;2023-06-26T11:39:31;5.00;;;2.00;;
5569;SDS011;2808;51.240;6.794;2023-06-26T11:41:59;4.90;;;1.83;;
5569;SDS011;2808;51.240;6.794;2023-06-26T11:44:29;12.17;;;2.60;;
5569;SDS011;2808;51.240;6.794;2023-06-26T11:47:03;5.97;;;2.00;;
5569;SDS011;2808;51.240;6.794;2023-06-26T11:49:31;5.53;;;1.90;;
5569;SDS011;2808;51.240;6.794;2023-06-26T11:52:02;7.70;;;2.40;;
5569;SDS011;2808;51.240;6.794;2023-06-26T11:54:30;5.27;;;1.73;;
5569;SDS011;2808;51.240;6.794;2023-06-26T11:56:58;10.00;;;1.90;;
5569;SDS011;2808;51.240;6.794;2023-06-26T11:59:33;8.17;;;2.07;;
5569;SDS011;2808;51.240;6.794;2023-06-26T12:02:04;4.43;;;2.00;;
5569;SDS011;2808;51.240;6.794;2023-06-26T12:04:34;5.77;;;2.20;;
5569;SDS011;2808;51.240;6.794;2023-06-26T12:07:07;5.60;;;2.17;;
5569;SDS011;2808;51.240;6.794;2023-06-26T12:09:39;7.30;;;1.90;;
5569;SDS011;2808;51.240;6.794;2023-06-26T12:12:10;8.20;;;2.23;;
5569;SDS011;2808;51.240;6.794;2023-06-26T12:14:43;9.10;;;2.67;;
5569;SDS011;2808;51.240;6.794;2023-06-26T12:17:11;5.03;;;2.00;;
5569;SDS011;2808;51.240;6.794;2023-06-26T12:19:44;5.93;;;1.93;;
5569;SDS011;2808;51.240;6.794;2023-06-26T12:22:13;9.23;;;1.90;;
5569;SDS011;2808;51.240;6.794;2023-06-26T12:24:47;7.73;;;2.50;;
5569;SDS011;2808;51.240;6.794;2023-06-26T12:27:15;6.43;;;2.20;;
5569;SDS011;2808;51.240;6.794;2023-06-26T12:29:51;14.33;;;2.47;;
5569;SDS011;2808;51.240;6.794;2023-06-26T12:32:22;6.80;;;2.00;;
5569;SDS011;2808;51.240;6.794;2023-06-26T12:34:56;8.30;;;2.07;;
5569;SDS011;2808;51.240;6.794;2023-06-26T12:40:02;6.90;;;1.90;;
5569;SDS011;2808;51.240;6.794;2023-06-26T12:42:33;8.20;;;1.73;;
5569;SDS011;2808;51.240;6.794;2023-06-26T12:45:09;5.00;;;1.67;;
5569;SDS011;2808;51.240;6.794;2023-06-26T12:47:38;8.33;;;1.87;;
5569;SDS011;2808;51.240;6.794;2023-06-26T12:50:08;5.53;;;1.90;;
5569;SDS011;2808;51.240;6.794;2023-06-26T12:52:38;11.13;;;2.10;;
5569;SDS011;2808;51.240;6.794;2023-06-26T12:55:07;6.40;;;1.80;;
5569;SDS011;2808;51.240;6.794;2023-06-26T12:57:35;4.90;;;1.67;;
5569;SDS011;2808;51.240;6.794;2023-06-26T13:00:03;5.57;;;1.80;;
5569;SDS011;2808;51.240;6.794;2023-06-26T13:02:35;8.30;;;2.00;;
5569;SDS011;2808;51.240;6.794;2023-06-26T13:05:03;5.60;;;1.70;;
5569;SDS011;2808;51.240;6.794;2023-06-26T13:07:32;7.33;;;2.03;;
5569;SDS011;2808;51.240;6.794;2023-06-26T13:09:59;6.00;;;1.70;;
5569;SDS011;2808;51.240;6.794;2023-06-26T13:12:27;6.23;;;1.70;;
5569;SDS011;2808;51.240;6.794;2023-06-26T13:14:55;11.43;;;2.10;;
5569;SDS011;2808;51.240;6.794;2023-06-26T13:17:26;5.77;;;2.00;;
5569;SDS011;2808;51.240;6.794;2023-06-26T13:19:56;5.80;;;1.67;;
5569;SDS011;2808;51.240;6.794;2023-06-26T13:22:24;3.70;;;1.60;;
5569;SDS011;2808;51.240;6.794;2023-06-26T13:24:52;9.07;;;1.73;;
5569;SDS011;2808;51.240;6.794;2023-06-26T13:27:20;6.30;;;1.80;;
5569;SDS011;2808;51.240;6.794;2023-06-26T13:29:48;4.23;;;1.60;;
5569;SDS011;2808;51.240;6.794;2023-06-26T13:32:15;7.00;;;1.77;;
5569;SDS011;2808;51.240;6.794;2023-06-26T13:34:45;6.00;;;1.70;;
5569;SDS011;2808;51.240;6.794;2023-06-26T13:37:13;6.77;;;1.83;;
5569;SDS011;2808;51.240;6.794;2023-06-26T13:39:41;8.20;;;1.63;;
5569;SDS011;2808;51.240;6.794;2023-06-26T13:42:19;6.90;;;1.60;;
5569;SDS011;2808;51.240;6.794;2023-06-26T13:44:48;8.70;;;2.13;;
5569;SDS011;2808;51.240;6.794;2023-06-26T13:47:18;6.57;;;1.53;;
5569;SDS011;2808;51.240;6.794;2023-06-26T13:49:46;10.67;;;1.80;;
5569;SDS011;2808;51.240;6.794;2023-06-26T13:52:14;9.03;;;2.30;;
5569;SDS011;2808;51.240;6.794;2023-06-26T13:54:41;6.13;;;1.90;;
5569;SDS011;2808;51.240;6.794;2023-06-26T13:57:09;7.43;;;1.70;;
5569;SDS011;2808;51.240;6.794;2023-06-26T13:59:38;4.57;;;1.63;;
5569;SDS011;2808;51.240;6.794;2023-06-26T14:02:06;6.33;;;1.57;;
5569;SDS011;2808;51.240;6.794;2023-06-26T14:04:34;4.97;;;1.67;;
5569;SDS011;2808;51.240;6.794;2023-06-26T14:07:02;5.93;;;1.47;;
5569;SDS011;2808;51.240;6.794;2023-06-26T14:09:30;4.70;;;1.60;;
5569;SDS011;2808;51.240;6.794;2023-06-26T14:11:58;4.33;;;1.83;;
5569;SDS011;2808;51.240;6.794;2023-06-26T14:14:26;10.40;;;2.23;;
5569;SDS011;2808;51.240;6.794;2023-06-26T14:16:54;7.40;;;2.00;;
5569;SDS011;2808;51.240;6.794;2023-06-26T14:19:24;9.10;;;1.80;;
5569;SDS011;2808;51.240;6.794;2023-06-26T14:21:51;5.47;;;1.57;;
5569;SDS011;2808;51.240;6.794;2023-06-26T14:24:19;9.03;;;2.00;;
5569;SDS011;2808;51.240;6.794;2023-06-26T14:26:50;9.70;;;1.70;;
5569;SDS011;2808;51.240;6.794;2023-06-26T14:29:19;7.30;;;2.07;;
5569;SDS011;2808;51.240;6.794;2023-06-26T14:31:48;9.60;;;1.70;;
5569;SDS011;2808;51.240;6.794;2023-06-26T14:34:18;11.80;;;1.93;;
5569;SDS011;2808;51.240;6.794;2023-06-26T14:36:45;5.13;;;1.90;;
5569;SDS011;2808;51.240;6.794;2023-06-26T14:39:13;5.83;;;2.00;;
5569;SDS011;2808;51.240;6.794;2023-06-26T14:41:41;3.87;;;1.53;;
5569;SDS011;2808;51.240;6.794;2023-06-26T14:44:10;6.43;;;1.80;;
5569;SDS011;2808;51.240;6.794;2023-06-26T14:46:37;8.17;;;2.37;;
5569;SDS011;2808;51.240;6.794;2023-06-26T14:49:05;4.63;;;1.80;;
5569;SDS011;2808;51.240;6.794;2023-06-26T14:51:34;5.30;;;1.80;;
5569;SDS011;2808;51.240;6.794;2023-06-26T14:54:03;6.87;;;1.70;;
5569;SDS011;2808;51.240;6.794;2023-06-26T14:56:33;5.00;;;1.87;;
5569;SDS011;2808;51.240;6.794;2023-06-26T14:59:01;5.20;;;1.73;;
5569;SDS011;2808;51.240;6.794;2023-06-26T15:01:32;4.63;;;1.80;;
5569;SDS011;2808;51.240;6.794;2023-06-26T15:04:00;5.70;;;2.80;;
5569;SDS011;2808;51.240;6.794;2023-06-26T15:06:29;6.60;;;2.50;;
5569;SDS011;2808;51.240;6.794;2023-06-26T15:09:07;4.80;;;1.50;;
5569;SDS011;2808;51.240;6.794;2023-06-26T15:11:36;6.10;;;1.73;;
5569;SDS011;2808;51.240;6.794;2023-06-26T15:14:04;8.17;;;2.30;;
5569;SDS011;2808;51.240;6.794;2023-06-26T15:16:31;8.33;;;3.40;;
5569;SDS011;2808;51.240;6.794;2023-06-26T15:18:59;8.63;;;2.60;;
5569;SDS011;2808;51.240;6.794;2023-06-26T15:21:27;4.53;;;1.80;;